sensor_id;sensor_type;location;lat;lon;timestamp;P1;durP1;ratioP1;P2;durP2;ratioP2
31238;SDS011;17871;31.584;74.450;2024-01-10T00:00:42;462.45;;;133.82;;
31238;SDS011;17871;31.584;74.450;2024-01-10T00:03:12;453.70;;;125.40;;
31238;SDS011;17871;31.584;74.450;2024-01-10T00:05:41;445.13;;;120.05;;
31238;SDS011;17871;31.584;74.450;2024-01-10T00:08:10;465.67;;;128.52;;
31238;SDS011;17871;31.584;74.450;2024-01-10T00:10:40;432.75;;;119.88;;
31238;SDS011;17871;31.584;74.450;2024-01-10T00:13:10;460.58;;;129.30;;
31238;SDS011;17871;31.584;74.450;2024-01-10T00:15:39;467.35;;;128.82;;
31238;SDS011;17871;31.584;74.450;2024-01-10T00:18:09;473.95;;;141.85;;
31238;SDS011;17871;31.584;74.450;2024-01-10T00:20:38;455.92;;;132.57;;
31238;SDS011;17871;31.584;74.450;2024-01-10T00:23:07;476.02;;;133.55;;
31238;SDS011;17871;31.584;74.450;2024-01-10T00:25:36;470.38;;;130.50;;
31238;SDS011;17871;31.584;74.450;2024-01-10T00:28:06;449.58;;;125.65;;
31238;SDS011;17871;31.584;74.450;2024-01-10T00:30:35;448.02;;;125.43;;
31238;SDS011;17871;31.584;74.450;2024-01-10T00:33:05;452.55;;;129.07;;
31238;SDS011;17871;31.584;74.450;2024-01-10T00:35:34;461.45;;;128.77;;
31238;SDS011;17871;31.584;74.450;2024-01-10T00:38:04;433.85;;;124.35;;
31238;SDS011;17871;31.584;74.450;2024-01-10T00:40:33;440.38;;;124.28;;
31238;SDS011;17871;31.584;74.450;2024-01-10T00:43:02;425.25;;;123.57;;
31238;SDS011;17871;31.584;74.450;2024-01-10T00:45:32;435.25;;;120.30;;
31238;SDS011;17871;31.584;74.450;2024-01-10T00:48:02;437.70;;;116.15;;
31238;SDS011;17871;31.584;74.450;2024-01-10T00:50:32;440.05;;;114.32;;
31238;SDS011;17871;31.584;74.450;2024-01-10T00:53:01;441.10;;;114.88;;
31238;SDS011;17871;31.584;74.450;2024-01-10T00:55:31;414.08;;;110.53;;
31238;SDS011;17871;31.584;74.450;2024-01-10T00:58:00;389.73;;;107.43;;
31238;SDS011;17871;31.584;74.450;2024-01-10T01:00:29;403.10;;;113.45;;
31238;SDS011;17871;31.584;74.450;2024-01-10T01:02:59;440.55;;;112.50;;
31238;SDS011;17871;31.584;74.450;2024-01-10T01:05:28;391.52;;;106.38;;
31238;SDS011;17871;31.584;74.450;2024-01-10T01:07:57;372.67;;;101.97;;
31238;SDS011;17871;31.584;74.450;2024-01-10T01:10:27;345.88;;;101.32;;
31238;SDS011;17871;31.584;74.450;2024-01-10T01:12:56;383.13;;;104.03;;
31238;SDS011;17871;31.584;74.450;2024-01-10T01:15:25;407.77;;;107.47;;
31238;SDS011;17871;31.584;74.450;2024-01-10T01:17:55;388.30;;;102.65;;
31238;SDS011;17871;31.584;74.450;2024-01-10T01:20:24;362.95;;;98.97;;
31238;SDS011;17871;31.584;74.450;2024-01-10T01:22:57;350.95;;;93.93;;
31238;SDS011;17871;31.584;74.450;2024-01-10T01:25:27;340.15;;;91.72;;
31238;SDS011;17871;31.584;74.450;2024-01-10T01:27:56;318.95;;;89.45;;
31238;SDS011;17871;31.584;74.450;2024-01-10T01:30:25;305.67;;;88.18;;
31238;SDS011;17871;31.584;74.450;2024-01-10T01:32:55;328.60;;;93.60;;
31238;SDS011;17871;31.584;74.450;2024-01-10T01:35:24;339.58;;;93.72;;
31238;SDS011;17871;31.584;74.450;2024-01-10T01:37:54;356.83;;;92.45;;
31238;SDS011;17871;31.584;74.450;2024-01-10T01:40:23;349.35;;;103.07;;
31238;SDS011;17871;31.584;74.450;2024-01-10T01:42:52;324.58;;;94.47;;
31238;SDS011;17871;31.584;74.450;2024-01-10T01:45:22;322.55;;;92.63;;
31238;SDS011;17871;31.584;74.450;2024-01-10T01:47:53;340.83;;;89.45;;
31238;SDS011;17871;31.584;74.450;2024-01-10T01:50:22;274.27;;;81.05;;
31238;SDS011;17871;31.584;74.450;2024-01-10T01:52:52;302.77;;;86.05;;
31238;SDS011;17871;31.584;74.450;2024-01-10T01:55:21;283.02;;;83.03;;
31238;SDS011;17871;31.584;74.450;2024-01-10T01:57:52;303.40;;;88.80;;
31238;SDS011;17871;31.584;74.450;2024-01-10T02:00:22;297.50;;;87.18;;
31238;SDS011;17871;31.584;74.450;2024-01-10T02:02:51;301.73;;;87.07;;
31238;SDS011;17871;31.584;74.450;2024-01-10T02:05:21;300.70;;;85.53;;
31238;SDS011;17871;31.584;74.450;2024-01-10T02:07:51;287.67;;;77.43;;
31238;SDS011;17871;31.584;74.450;2024-01-10T02:10:20;252.65;;;72.80;;
31238;SDS011;17871;31.584;74.450;2024-01-10T02:12:50;266.05;;;77.57;;
31238;SDS011;17871;31.584;74.450;2024-01-10T02:15:19;242.55;;;75.53;;
31238;SDS011;17871;31.584;74.450;2024-01-10T02:17:49;282.23;;;82.78;;
31238;SDS011;17871;31.584;74.450;2024-01-10T02:20:18;270.65;;;80.95;;
31238;SDS011;17871;31.584;74.450;2024-01-10T02:22:49;282.27;;;74.05;;
31238;SDS011;17871;31.584;74.450;2024-01-10T02:25:19;275.45;;;75.30;;
31238;SDS011;17871;31.584;74.450;2024-01-10T02:27:50;262.75;;;73.28;;
31238;SDS011;17871;31.584;74.450;2024-01-10T02:30:19;296.23;;;78.43;;
31238;SDS011;17871;31.584;74.450;2024-01-10T02:32:49;298.10;;;86.30;;
31238;SDS011;17871;31.584;74.450;2024-01-10T02:35:18;295.98;;;82.53;;
31238;SDS011;17871;31.584;74.450;2024-01-10T02:37:48;264.08;;;75.25;;
31238;SDS011;17871;31.584;74.450;2024-01-10T02:40:21;287.95;;;79.30;;
31238;SDS011;17871;31.584;74.450;2024-01-10T02:42:50;293.65;;;82.38;;
31238;SDS011;17871;31.584;74.450;2024-01-10T02:45:19;277.73;;;79.47;;
31238;SDS011;17871;31.584;74.450;2024-01-10T02:47:49;262.38;;;73.78;;
31238;SDS011;17871;31.584;74.450;2024-01-10T02:50:19;250.60;;;76.70;;
31238;SDS011;17871;31.584;74.450;2024-01-10T02:52:48;249.35;;;74.57;;
31238;SDS011;17871;31.584;74.450;2024-01-10T02:55:17;279.88;;;77.82;;
31238;SDS011;17871;31.584;74.450;2024-01-10T02:57:47;312.58;;;87.80;;
31238;SDS011;17871;31.584;74.450;2024-01-10T03:00:16;259.75;;;73.03;;
31238;SDS011;17871;31.584;74.450;2024-01-10T03:02:46;237.65;;;71.68;;
31238;SDS011;17871;31.584;74.450;2024-01-10T03:05:15;212.25;;;65.60;;
31238;SDS011;17871;31.584;74.450;2024-01-10T03:07:44;241.93;;;67.03;;
31238;SDS011;17871;31.584;74.450;2024-01-10T03:10:14;201.82;;;64.18;;
31238;SDS011;17871;31.584;74.450;2024-01-10T03:12:43;211.20;;;60.42;;
31238;SDS011;17871;31.584;74.450;2024-01-10T03:15:13;204.73;;;60.10;;
31238;SDS011;17871;31.584;74.450;2024-01-10T03:17:42;249.10;;;68.95;;
31238;SDS011;17871;31.584;74.450;2024-01-10T03:20:11;248.73;;;67.85;;
31238;SDS011;17871;31.584;74.450;2024-01-10T03:22:41;223.20;;;72.13;;
31238;SDS011;17871;31.584;74.450;2024-01-10T03:25:10;199.40;;;65.38;;
31238;SDS011;17871;31.584;74.450;2024-01-10T03:27:40;205.40;;;63.50;;
31238;SDS011;17871;31.584;74.450;2024-01-10T03:30:09;220.10;;;65.70;;
31238;SDS011;17871;31.584;74.450;2024-01-10T03:32:39;202.70;;;66.18;;
31238;SDS011;17871;31.584;74.450;2024-01-10T03:35:08;215.70;;;69.70;;
31238;SDS011;17871;31.584;74.450;2024-01-10T03:37:38;238.38;;;74.55;;
31238;SDS011;17871;31.584;74.450;2024-01-10T03:40:07;238.30;;;76.95;;
31238;SDS011;17871;31.584;74.450;2024-01-10T03:42:37;192.23;;;67.28;;
31238;SDS011;17871;31.584;74.450;2024-01-10T03:45:06;193.73;;;63.75;;
31238;SDS011;17871;31.584;74.450;2024-01-10T03:47:36;189.10;;;59.92;;
31238;SDS011;17871;31.584;74.450;2024-01-10T03:50:05;177.27;;;56.15;;
31238;SDS011;17871;31.584;74.450;2024-01-10T03:52:35;176.05;;;54.10;;
31238;SDS011;17871;31.584;74.450;2024-01-10T03:55:05;192.55;;;64.68;;
31238;SDS011;17871;31.584;74.450;2024-01-10T03:57:34;195.30;;;65.60;;
31238;SDS011;17871;31.584;74.450;2024-01-10T04:00:04;206.95;;;62.80;;
31238;SDS011;17871;31.584;74.450;2024-01-10T04:02:36;208.05;;;66.53;;
31238;SDS011;17871;31.584;74.450;2024-01-10T04:05:09;256.50;;;79.15;;
31238;SDS011;17871;31.584;74.450;2024-01-10T04:07:41;249.18;;;78.85;;
31238;SDS011;17871;31.584;74.450;2024-01-10T04:10:12;261.42;;;79.90;;
31238;SDS011;17871;31.584;74.450;2024-01-10T04:12:43;221.77;;;69.15;;
31238;SDS011;17871;31.584;74.450;2024-01-10T04:15:12;200.63;;;60.25;;
31238;SDS011;17871;31.584;74.450;2024-01-10T04:17:41;218.65;;;60.70;;
31238;SDS011;17871;31.584;74.450;2024-01-10T04:20:11;208.95;;;64.95;;
31238;SDS011;17871;31.584;74.450;2024-01-10T04:22:40;253.80;;;76.40;;
31238;SDS011;17871;31.584;74.450;2024-01-10T04:25:10;237.93;;;74.60;;
31238;SDS011;17871;31.584;74.450;2024-01-10T04:27:40;249.60;;;79.22;;
31238;SDS011;17871;31.584;74.450;2024-01-10T04:30:09;252.43;;;81.03;;
31238;SDS011;17871;31.584;74.450;2024-01-10T04:32:39;280.17;;;93.03;;
31238;SDS011;17871;31.584;74.450;2024-01-10T04:35:09;262.33;;;81.85;;
31238;SDS011;17871;31.584;74.450;2024-01-10T04:37:39;279.75;;;86.20;;
31238;SDS011;17871;31.584;74.450;2024-01-10T04:40:08;276.48;;;93.60;;
31238;SDS011;17871;31.584;74.450;2024-01-10T04:42:38;263.45;;;79.75;;
31238;SDS011;17871;31.584;74.450;2024-01-10T04:45:07;284.95;;;77.75;;
31238;SDS011;17871;31.584;74.450;2024-01-10T04:47:36;261.25;;;77.50;;
31238;SDS011;17871;31.584;74.450;2024-01-10T04:50:06;273.65;;;82.35;;
31238;SDS011;17871;31.584;74.450;2024-01-10T04:52:40;262.30;;;82.60;;
31238;SDS011;17871;31.584;74.450;2024-01-10T04:55:10;291.48;;;83.85;;
31238;SDS011;17871;31.584;74.450;2024-01-10T04:57:40;309.52;;;80.60;;
31238;SDS011;17871;31.584;74.450;2024-01-10T05:00:09;287.75;;;86.35;;
31238;SDS011;17871;31.584;74.450;2024-01-10T05:02:39;297.17;;;80.45;;
31238;SDS011;17871;31.584;74.450;2024-01-10T05:05:13;293.50;;;82.30;;
31238;SDS011;17871;31.584;74.450;2024-01-10T05:07:44;258.85;;;77.53;;
31238;SDS011;17871;31.584;74.450;2024-01-10T05:10:15;192.55;;;63.65;;
31238;SDS011;17871;31.584;74.450;2024-01-10T05:12:44;267.38;;;85.50;;
31238;SDS011;17871;31.584;74.450;2024-01-10T05:15:14;335.23;;;98.95;;
31238;SDS011;17871;31.584;74.450;2024-01-10T05:17:43;331.35;;;94.13;;
31238;SDS011;17871;31.584;74.450;2024-01-10T05:20:14;336.35;;;96.82;;
31238;SDS011;17871;31.584;74.450;2024-01-10T05:22:44;341.17;;;99.55;;
31238;SDS011;17871;31.584;74.450;2024-01-10T05:27:47;303.90;;;97.80;;
31238;SDS011;17871;31.584;74.450;2024-01-10T05:30:20;342.90;;;99.72;;
31238;SDS011;17871;31.584;74.450;2024-01-10T05:32:52;294.50;;;96.68;;
31238;SDS011;17871;31.584;74.450;2024-01-10T05:35:25;329.73;;;102.78;;
31238;SDS011;17871;31.584;74.450;2024-01-10T05:37:55;356.02;;;109.35;;
31238;SDS011;17871;31.584;74.450;2024-01-10T05:40:24;326.15;;;100.35;;
31238;SDS011;17871;31.584;74.450;2024-01-10T05:42:54;331.05;;;101.93;;
31238;SDS011;17871;31.584;74.450;2024-01-10T05:45:24;332.60;;;95.03;;
31238;SDS011;17871;31.584;74.450;2024-01-10T05:47:54;341.10;;;107.90;;
31238;SDS011;17871;31.584;74.450;2024-01-10T05:50:24;338.00;;;101.78;;
31238;SDS011;17871;31.584;74.450;2024-01-10T05:52:54;331.67;;;98.40;;
31238;SDS011;17871;31.584;74.450;2024-01-10T05:55:24;320.40;;;90.57;;
31238;SDS011;17871;31.584;74.450;2024-01-10T05:57:55;287.95;;;84.75;;
31238;SDS011;17871;31.584;74.450;2024-01-10T06:00:24;282.33;;;85.70;;
31238;SDS011;17871;31.584;74.450;2024-01-10T06:02:58;323.20;;;95.35;;
31238;SDS011;17871;31.584;74.450;2024-01-10T06:05:28;332.10;;;105.47;;
31238;SDS011;17871;31.584;74.450;2024-01-10T06:07:57;339.00;;;103.50;;
31238;SDS011;17871;31.584;74.450;2024-01-10T06:10:27;365.75;;;109.82;;
31238;SDS011;17871;31.584;74.450;2024-01-10T06:13:01;421.70;;;125.75;;
31238;SDS011;17871;31.584;74.450;2024-01-10T06:15:30;437.20;;;137.73;;
31238;SDS011;17871;31.584;74.450;2024-01-10T06:18:00;400.75;;;128.25;;
31238;SDS011;17871;31.584;74.450;2024-01-10T06:20:29;328.70;;;99.25;;
31238;SDS011;17871;31.584;74.450;2024-01-10T06:23:00;297.38;;;97.85;;
31238;SDS011;17871;31.584;74.450;2024-01-10T06:25:35;280.63;;;85.13;;
31238;SDS011;17871;31.584;74.450;2024-01-10T06:28:05;292.63;;;93.50;;
31238;SDS011;17871;31.584;74.450;2024-01-10T06:30:34;341.50;;;101.68;;
31238;SDS011;17871;31.584;74.450;2024-01-10T06:33:04;288.65;;;94.50;;
31238;SDS011;17871;31.584;74.450;2024-01-10T06:35:35;311.05;;;97.60;;
31238;SDS011;17871;31.584;74.450;2024-01-10T06:38:05;327.85;;;103.65;;
31238;SDS011;17871;31.584;74.450;2024-01-10T06:40:35;342.80;;;108.93;;
31238;SDS011;17871;31.584;74.450;2024-01-10T06:43:05;350.08;;;108.80;;
31238;SDS011;17871;31.584;74.450;2024-01-10T06:45:37;350.95;;;106.07;;
31238;SDS011;17871;31.584;74.450;2024-01-10T06:48:06;374.45;;;123.57;;
31238;SDS011;17871;31.584;74.450;2024-01-10T06:50:36;350.15;;;115.32;;
31238;SDS011;17871;31.584;74.450;2024-01-10T06:53:06;369.05;;;119.35;;
31238;SDS011;17871;31.584;74.450;2024-01-10T06:55:37;359.30;;;117.47;;
31238;SDS011;17871;31.584;74.450;2024-01-10T06:58:06;352.30;;;113.55;;
31238;SDS011;17871;31.584;74.450;2024-01-10T07:00:36;311.90;;;95.35;;
31238;SDS011;17871;31.584;74.450;2024-01-10T07:03:07;295.00;;;93.05;;
31238;SDS011;17871;31.584;74.450;2024-01-10T07:05:36;303.98;;;97.25;;
31238;SDS011;17871;31.584;74.450;2024-01-10T07:08:09;283.45;;;86.97;;
31238;SDS011;17871;31.584;74.450;2024-01-10T07:10:40;288.60;;;91.43;;
31238;SDS011;17871;31.584;74.450;2024-01-10T07:13:09;271.02;;;82.80;;
31238;SDS011;17871;31.584;74.450;2024-01-10T07:15:39;261.85;;;86.85;;
31238;SDS011;17871;31.584;74.450;2024-01-10T07:18:09;243.23;;;82.78;;
31238;SDS011;17871;31.584;74.450;2024-01-10T07:20:39;230.43;;;72.90;;
31238;SDS011;17871;31.584;74.450;2024-01-10T07:23:09;221.32;;;74.53;;
31238;SDS011;17871;31.584;74.450;2024-01-10T07:25:42;235.98;;;80.05;;
31238;SDS011;17871;31.584;74.450;2024-01-10T07:28:12;248.00;;;78.57;;
31238;SDS011;17871;31.584;74.450;2024-01-10T07:30:42;272.83;;;79.00;;
31238;SDS011;17871;31.584;74.450;2024-01-10T07:33:12;274.90;;;89.95;;
31238;SDS011;17871;31.584;74.450;2024-01-10T07:35:42;338.30;;;96.20;;
31238;SDS011;17871;31.584;74.450;2024-01-10T07:38:12;296.30;;;98.05;;
31238;SDS011;17871;31.584;74.450;2024-01-10T07:40:48;284.83;;;89.95;;
31238;SDS011;17871;31.584;74.450;2024-01-10T07:43:18;293.45;;;89.00;;
31238;SDS011;17871;31.584;74.450;2024-01-10T07:45:52;299.80;;;98.60;;
31238;SDS011;17871;31.584;74.450;2024-01-10T07:48:21;277.20;;;98.50;;
31238;SDS011;17871;31.584;74.450;2024-01-10T07:50:52;266.63;;;94.22;;
31238;SDS011;17871;31.584;74.450;2024-01-10T07:53:22;276.15;;;89.07;;
31238;SDS011;17871;31.584;74.450;2024-01-10T07:55:56;300.55;;;101.47;;
31238;SDS011;17871;31.584;74.450;2024-01-10T07:58:25;285.15;;;96.03;;
31238;SDS011;17871;31.584;74.450;2024-01-10T08:00:56;288.48;;;95.03;;
31238;SDS011;17871;31.584;74.450;2024-01-10T08:03:25;301.45;;;92.38;;
31238;SDS011;17871;31.584;74.450;2024-01-10T08:05:55;289.02;;;88.43;;
31238;SDS011;17871;31.584;74.450;2024-01-10T08:08:25;290.02;;;90.53;;
31238;SDS011;17871;31.584;74.450;2024-01-10T08:10:56;285.20;;;93.25;;
31238;SDS011;17871;31.584;74.450;2024-01-10T08:13:25;294.75;;;102.78;;
31238;SDS011;17871;31.584;74.450;2024-01-10T08:16:05;314.23;;;95.32;;
31238;SDS011;17871;31.584;74.450;2024-01-10T08:18:39;287.05;;;94.00;;
31238;SDS011;17871;31.584;74.450;2024-01-10T08:21:09;312.35;;;100.72;;
31238;SDS011;17871;31.584;74.450;2024-01-10T08:23:39;314.52;;;101.20;;
31238;SDS011;17871;31.584;74.450;2024-01-10T08:26:08;292.92;;;98.80;;
31238;SDS011;17871;31.584;74.450;2024-01-10T08:28:38;340.35;;;128.05;;
31238;SDS011;17871;31.584;74.450;2024-01-10T08:31:09;339.05;;;132.23;;
31238;SDS011;17871;31.584;74.450;2024-01-10T08:33:43;310.73;;;99.57;;
31238;SDS011;17871;31.584;74.450;2024-01-10T08:36:13;323.55;;;104.13;;
31238;SDS011;17871;31.584;74.450;2024-01-10T08:41:15;340.88;;;102.47;;
31238;SDS011;17871;31.584;74.450;2024-01-10T08:43:46;341.75;;;98.88;;
31238;SDS011;17871;31.584;74.450;2024-01-10T08:46:16;310.00;;;99.20;;
31238;SDS011;17871;31.584;74.450;2024-01-10T08:48:45;384.08;;;111.03;;
31238;SDS011;17871;31.584;74.450;2024-01-10T08:51:17;389.17;;;114.00;;
31238;SDS011;17871;31.584;74.450;2024-01-10T08:53:46;362.05;;;108.55;;
31238;SDS011;17871;31.584;74.450;2024-01-10T08:56:16;360.55;;;108.93;;
31238;SDS011;17871;31.584;74.450;2024-01-10T08:58:46;321.50;;;97.35;;
31238;SDS011;17871;31.584;74.450;2024-01-10T09:01:16;364.67;;;98.57;;
31238;SDS011;17871;31.584;74.450;2024-01-10T09:03:45;319.30;;;95.93;;
31238;SDS011;17871;31.584;74.450;2024-01-10T09:06:15;260.75;;;84.47;;
31238;SDS011;17871;31.584;74.450;2024-01-10T09:08:46;255.25;;;83.13;;
31238;SDS011;17871;31.584;74.450;2024-01-10T09:11:15;298.70;;;97.45;;
31238;SDS011;17871;31.584;74.450;2024-01-10T09:13:45;285.08;;;101.70;;
31238;SDS011;17871;31.584;74.450;2024-01-10T09:16:14;282.00;;;87.28;;
31238;SDS011;17871;31.584;74.450;2024-01-10T09:18:44;332.70;;;110.93;;
31238;SDS011;17871;31.584;74.450;2024-01-10T09:21:13;296.65;;;92.68;;
31238;SDS011;17871;31.584;74.450;2024-01-10T09:23:44;293.05;;;90.78;;
31238;SDS011;17871;31.584;74.450;2024-01-10T09:26:14;349.52;;;105.95;;
31238;SDS011;17871;31.584;74.450;2024-01-10T09:28:43;377.25;;;106.68;;
31238;SDS011;17871;31.584;74.450;2024-01-10T09:31:13;406.55;;;113.25;;
31238;SDS011;17871;31.584;74.450;2024-01-10T09:33:42;441.90;;;129.57;;
31238;SDS011;17871;31.584;74.450;2024-01-10T09:36:12;449.77;;;133.40;;
31238;SDS011;17871;31.584;74.450;2024-01-10T09:38:46;464.63;;;145.52;;
31238;SDS011;17871;31.584;74.450;2024-01-10T09:41:16;433.98;;;138.98;;
31238;SDS011;17871;31.584;74.450;2024-01-10T09:43:46;427.10;;;131.77;;
31238;SDS011;17871;31.584;74.450;2024-01-10T09:46:15;393.25;;;121.00;;
31238;SDS011;17871;31.584;74.450;2024-01-10T09:48:47;359.70;;;109.72;;
31238;SDS011;17871;31.584;74.450;2024-01-10T09:51:22;331.33;;;103.00;;
31238;SDS011;17871;31.584;74.450;2024-01-10T09:53:52;328.00;;;96.03;;
31238;SDS011;17871;31.584;74.450;2024-01-10T09:56:22;286.15;;;90.97;;
31238;SDS011;17871;31.584;74.450;2024-01-10T09:58:52;276.08;;;87.75;;
31238;SDS011;17871;31.584;74.450;2024-01-10T10:01:22;297.83;;;93.15;;
31238;SDS011;17871;31.584;74.450;2024-01-10T10:03:53;300.20;;;100.40;;
31238;SDS011;17871;31.584;74.450;2024-01-10T10:06:23;359.08;;;113.03;;
31238;SDS011;17871;31.584;74.450;2024-01-10T10:08:52;368.38;;;117.45;;
31238;SDS011;17871;31.584;74.450;2024-01-10T10:11:22;367.17;;;118.22;;
31238;SDS011;17871;31.584;74.450;2024-01-10T10:13:52;329.20;;;106.82;;
31238;SDS011;17871;31.584;74.450;2024-01-10T10:16:25;310.50;;;95.50;;
31238;SDS011;17871;31.584;74.450;2024-01-10T10:18:55;303.63;;;94.28;;
31238;SDS011;17871;31.584;74.450;2024-01-10T10:21:26;309.27;;;91.72;;
31238;SDS011;17871;31.584;74.450;2024-01-10T10:24:00;325.80;;;96.68;;
31238;SDS011;17871;31.584;74.450;2024-01-10T10:26:34;345.58;;;95.82;;
31238;SDS011;17871;31.584;74.450;2024-01-10T10:29:03;313.10;;;95.03;;
31238;SDS011;17871;31.584;74.450;2024-01-10T10:31:34;372.48;;;105.18;;
31238;SDS011;17871;31.584;74.450;2024-01-10T10:34:04;367.48;;;114.95;;
31238;SDS011;17871;31.584;74.450;2024-01-10T10:36:34;368.55;;;110.05;;
31238;SDS011;17871;31.584;74.450;2024-01-10T10:39:04;385.50;;;114.75;;
31238;SDS011;17871;31.584;74.450;2024-01-10T10:41:42;381.13;;;122.72;;
31238;SDS011;17871;31.584;74.450;2024-01-10T10:44:12;354.48;;;121.00;;
31238;SDS011;17871;31.584;74.450;2024-01-10T10:46:43;399.55;;;119.80;;
31238;SDS011;17871;31.584;74.450;2024-01-10T10:49:15;399.00;;;122.25;;
31238;SDS011;17871;31.584;74.450;2024-01-10T10:51:47;387.80;;;124.47;;
31238;SDS011;17871;31.584;74.450;2024-01-10T10:54:17;377.83;;;119.38;;
31238;SDS011;17871;31.584;74.450;2024-01-10T10:56:47;371.85;;;119.68;;
31238;SDS011;17871;31.584;74.450;2024-01-10T10:59:17;381.13;;;116.28;;
31238;SDS011;17871;31.584;74.450;2024-01-10T11:01:48;366.23;;;107.72;;
31238;SDS011;17871;31.584;74.450;2024-01-10T11:04:26;356.67;;;106.63;;
31238;SDS011;17871;31.584;74.450;2024-01-10T11:06:56;343.17;;;109.32;;
31238;SDS011;17871;31.584;74.450;2024-01-10T11:09:29;347.65;;;109.40;;
31238;SDS011;17871;31.584;74.450;2024-01-10T11:19:52;377.92;;;120.75;;
31238;SDS011;17871;31.584;74.450;2024-01-10T11:25:03;382.92;;;120.30;;
31238;SDS011;17871;31.584;74.450;2024-01-10T11:27:34;349.70;;;114.28;;
31238;SDS011;17871;31.584;74.450;2024-01-10T11:30:06;363.60;;;116.00;;
31238;SDS011;17871;31.584;74.450;2024-01-10T11:32:36;353.17;;;121.88;;
31238;SDS011;17871;31.584;74.450;2024-01-10T11:35:18;298.42;;;103.90;;
31238;SDS011;17871;31.584;74.450;2024-01-10T11:37:49;304.40;;;97.53;;
31238;SDS011;17871;31.584;74.450;2024-01-10T11:40:54;277.17;;;94.30;;
31238;SDS011;17871;31.584;74.450;2024-01-10T11:43:17;272.67;;;86.10;;
31238;SDS011;17871;31.584;74.450;2024-01-10T11:45:55;281.30;;;85.95;;
31238;SDS011;17871;31.584;74.450;2024-01-10T11:48:26;257.63;;;85.35;;
31238;SDS011;17871;31.584;74.450;2024-01-10T11:50:59;262.92;;;87.25;;
31238;SDS011;17871;31.584;74.450;2024-01-10T11:53:39;286.73;;;92.82;;
31238;SDS011;17871;31.584;74.450;2024-01-10T11:56:09;309.08;;;95.30;;
31238;SDS011;17871;31.584;74.450;2024-01-10T11:59:02;326.25;;;107.82;;
31238;SDS011;17871;31.584;74.450;2024-01-10T12:01:38;287.10;;;98.00;;
31238;SDS011;17871;31.584;74.450;2024-01-10T12:04:08;297.90;;;99.88;;
31238;SDS011;17871;31.584;74.450;2024-01-10T12:06:50;287.58;;;99.63;;
31238;SDS011;17871;31.584;74.450;2024-01-10T12:09:20;279.67;;;98.97;;
31238;SDS011;17871;31.584;74.450;2024-01-10T12:11:50;286.65;;;100.40;;
31238;SDS011;17871;31.584;74.450;2024-01-10T12:14:19;287.17;;;95.57;;
31238;SDS011;17871;31.584;74.450;2024-01-10T12:16:50;309.65;;;100.30;;
31238;SDS011;17871;31.584;74.450;2024-01-10T12:19:21;324.40;;;105.40;;
31238;SDS011;17871;31.584;74.450;2024-01-10T12:21:50;301.27;;;101.72;;
31238;SDS011;17871;31.584;74.450;2024-01-10T12:24:21;291.52;;;103.75;;
31238;SDS011;17871;31.584;74.450;2024-01-10T12:26:50;292.88;;;102.55;;
31238;SDS011;17871;31.584;74.450;2024-01-10T12:29:19;279.15;;;95.90;;
31238;SDS011;17871;31.584;74.450;2024-01-10T12:31:49;261.08;;;89.80;;
31238;SDS011;17871;31.584;74.450;2024-01-10T12:34:18;246.60;;;93.32;;
31238;SDS011;17871;31.584;74.450;2024-01-10T12:36:54;259.30;;;97.53;;
31238;SDS011;17871;31.584;74.450;2024-01-10T12:39:24;252.82;;;87.57;;
31238;SDS011;17871;31.584;74.450;2024-01-10T12:41:54;230.68;;;85.22;;
31238;SDS011;17871;31.584;74.450;2024-01-10T12:44:26;264.00;;;87.95;;
31238;SDS011;17871;31.584;74.450;2024-01-10T12:46:56;221.50;;;78.78;;
31238;SDS011;17871;31.584;74.450;2024-01-10T12:49:26;226.43;;;87.32;;
31238;SDS011;17871;31.584;74.450;2024-01-10T12:51:56;218.25;;;78.55;;
31238;SDS011;17871;31.584;74.450;2024-01-10T12:54:25;229.90;;;79.60;;
31238;SDS011;17871;31.584;74.450;2024-01-10T12:56:55;226.95;;;75.88;;
31238;SDS011;17871;31.584;74.450;2024-01-10T12:59:25;205.38;;;76.65;;
31238;SDS011;17871;31.584;74.450;2024-01-10T13:01:55;219.02;;;75.85;;
31238;SDS011;17871;31.584;74.450;2024-01-10T13:04:26;207.02;;;74.13;;
31238;SDS011;17871;31.584;74.450;2024-01-10T13:06:55;218.63;;;81.10;;
31238;SDS011;17871;31.584;74.450;2024-01-10T13:09:25;216.85;;;78.40;;
31238;SDS011;17871;31.584;74.450;2024-01-10T13:11:54;231.25;;;77.88;;
31238;SDS011;17871;31.584;74.450;2024-01-10T13:14:23;230.98;;;78.32;;
31238;SDS011;17871;31.584;74.450;2024-01-10T13:16:53;213.32;;;78.75;;
31238;SDS011;17871;31.584;74.450;2024-01-10T13:19:27;229.82;;;76.65;;
31238;SDS011;17871;31.584;74.450;2024-01-10T13:21:56;233.73;;;77.90;;
31238;SDS011;17871;31.584;74.450;2024-01-10T13:24:25;224.80;;;76.68;;
31238;SDS011;17871;31.584;74.450;2024-01-10T13:26:55;215.98;;;73.95;;
31238;SDS011;17871;31.584;74.450;2024-01-10T13:29:24;230.13;;;78.13;;
31238;SDS011;17871;31.584;74.450;2024-01-10T13:31:54;216.63;;;78.55;;
31238;SDS011;17871;31.584;74.450;2024-01-10T13:34:23;238.30;;;82.63;;
31238;SDS011;17871;31.584;74.450;2024-01-10T13:36:52;252.95;;;85.60;;
31238;SDS011;17871;31.584;74.450;2024-01-10T13:39:22;271.83;;;113.18;;
31238;SDS011;17871;31.584;74.450;2024-01-10T13:41:51;267.63;;;90.47;;
31238;SDS011;17871;31.584;74.450;2024-01-10T13:44:22;249.40;;;83.43;;
31238;SDS011;17871;31.584;74.450;2024-01-10T13:46:51;225.90;;;87.43;;
31238;SDS011;17871;31.584;74.450;2024-01-10T13:49:22;249.93;;;90.30;;
31238;SDS011;17871;31.584;74.450;2024-01-10T13:51:51;248.27;;;90.43;;
31238;SDS011;17871;31.584;74.450;2024-01-10T13:54:21;231.48;;;84.32;;
31238;SDS011;17871;31.584;74.450;2024-01-10T13:56:50;241.75;;;86.30;;
31238;SDS011;17871;31.584;74.450;2024-01-10T13:59:19;239.73;;;83.55;;
31238;SDS011;17871;31.584;74.450;2024-01-10T14:01:49;235.13;;;84.10;;
31238;SDS011;17871;31.584;74.450;2024-01-10T14:04:18;215.00;;;84.32;;
31238;SDS011;17871;31.584;74.450;2024-01-10T14:06:48;223.88;;;83.38;;
31238;SDS011;17871;31.584;74.450;2024-01-10T14:09:19;221.00;;;83.93;;
31238;SDS011;17871;31.584;74.450;2024-01-10T14:11:49;228.40;;;82.40;;
31238;SDS011;17871;31.584;74.450;2024-01-10T14:14:19;291.52;;;108.85;;
31238;SDS011;17871;31.584;74.450;2024-01-10T14:16:53;358.42;;;131.77;;
31238;SDS011;17871;31.584;74.450;2024-01-10T14:19:22;349.08;;;130.90;;
31238;SDS011;17871;31.584;74.450;2024-01-10T14:21:52;343.27;;;131.27;;
31238;SDS011;17871;31.584;74.450;2024-01-10T14:24:21;306.08;;;115.45;;